sensor_id;sensor_type;location;lat;lon;timestamp;pressure;altitude;pressure_sealevel;temperature;humidity
77005;BME280;67261;53.132;18.006;2024-01-16T00:01:01;99285.64;;;-1.44;64.43
77005;BME280;67261;53.132;18.006;2024-01-16T00:03:44;99297.41;;;-1.44;64.63
77005;BME280;67261;53.132;18.006;2024-01-16T00:06:11;99298.50;;;-1.45;64.64
77005;BME280;67261;53.132;18.006;2024-01-16T00:08:39;99302.27;;;-1.44;64.66
77005;BME280;67261;53.132;18.006;2024-01-16T00:11:06;99311.63;;;-1.42;64.75
77005;BME280;67261;53.132;18.006;2024-01-16T00:13:35;99316.01;;;-1.42;65.01
77005;BME280;67261;53.132;18.006;2024-01-16T00:16:02;99327.23;;;-1.39;65.01
77005;BME280;67261;53.132;18.006;2024-01-16T00:18:32;99326.28;;;-1.38;64.86
77005;BME280;67261;53.132;18.006;2024-01-16T00:21:01;99331.74;;;-1.37;64.95
77005;BME280;67261;53.132;18.006;2024-01-16T00:23:29;99341.09;;;-1.36;64.75
77005;BME280;67261;53.132;18.006;2024-01-16T00:25:59;99348.54;;;-1.36;64.92
77005;BME280;67261;53.132;18.006;2024-01-16T00:28:25;99361.32;;;-1.38;64.06
77005;BME280;67261;53.132;18.006;2024-01-16T00:30:52;99363.87;;;-1.44;63.97
77005;BME280;67261;53.132;18.006;2024-01-16T00:33:19;99361.47;;;-1.52;64.25
77005;BME280;67261;53.132;18.006;2024-01-16T00:35:47;99361.48;;;-1.59;63.23
77005;BME280;67261;53.132;18.006;2024-01-16T00:38:13;99362.21;;;-1.69;62.64
77005;BME280;67261;53.132;18.006;2024-01-16T00:40:40;99361.04;;;-1.79;63.26
77005;BME280;67261;53.132;18.006;2024-01-16T00:43:08;99367.00;;;-1.88;63.15
77005;BME280;67261;53.132;18.006;2024-01-16T00:45:35;99369.78;;;-1.95;63.30
77005;BME280;67261;53.132;18.006;2024-01-16T00:48:03;99378.43;;;-2.00;63.76
77005;BME280;67261;53.132;18.006;2024-01-16T00:50:32;99385.20;;;-2.03;63.97
77005;BME280;67261;53.132;18.006;2024-01-16T00:52:59;99385.94;;;-2.06;64.07
77005;BME280;67261;53.132;18.006;2024-01-16T00:55:27;99389.02;;;-2.10;63.62
77005;BME280;67261;53.132;18.006;2024-01-16T00:57:54;99395.46;;;-2.13;64.01
77005;BME280;67261;53.132;18.006;2024-01-16T01:00:21;99398.61;;;-2.13;64.47
77005;BME280;67261;53.132;18.006;2024-01-16T01:02:48;99401.58;;;-2.14;64.63
77005;BME280;67261;53.132;18.006;2024-01-16T01:05:15;99398.77;;;-2.13;64.81
77005;BME280;67261;53.132;18.006;2024-01-16T01:07:42;99409.33;;;-2.13;64.85
77005;BME280;67261;53.132;18.006;2024-01-16T01:10:09;99409.46;;;-2.12;64.55
77005;BME280;67261;53.132;18.006;2024-01-16T01:12:36;99418.44;;;-2.12;64.58
77005;BME280;67261;53.132;18.006;2024-01-16T01:15:03;99426.73;;;-2.12;64.55
77005;BME280;67261;53.132;18.006;2024-01-16T01:17:30;99430.14;;;-2.11;64.48
77005;BME280;67261;53.132;18.006;2024-01-16T01:19:57;99438.95;;;-2.10;64.26
77005;BME280;67261;53.132;18.006;2024-01-16T01:22:24;99440.16;;;-2.10;64.33
77005;BME280;67261;53.132;18.006;2024-01-16T01:24:51;99443.40;;;-2.10;64.24
77005;BME280;67261;53.132;18.006;2024-01-16T01:27:18;99446.30;;;-2.09;64.36
77005;BME280;67261;53.132;18.006;2024-01-16T01:29:45;99453.52;;;-2.11;64.16
77005;BME280;67261;53.132;18.006;2024-01-16T01:32:12;99452.73;;;-2.14;64.26
77005;BME280;67261;53.132;18.006;2024-01-16T01:34:43;99455.27;;;-2.16;64.60
77005;BME280;67261;53.132;18.006;2024-01-16T01:37:10;99454.42;;;-2.18;64.45
77005;BME280;67261;53.132;18.006;2024-01-16T01:39:37;99455.34;;;-2.24;63.78
77005;BME280;67261;53.132;18.006;2024-01-16T01:42:04;99456.23;;;-2.30;63.79
77005;BME280;67261;53.132;18.006;2024-01-16T01:44:30;99466.73;;;-2.34;63.92
77005;BME280;67261;53.132;18.006;2024-01-16T01:46:58;99471.42;;;-2.39;63.59
77005;BME280;67261;53.132;18.006;2024-01-16T01:49:26;99473.79;;;-2.44;63.76
77005;BME280;67261;53.132;18.006;2024-01-16T01:51:54;99478.23;;;-2.48;63.76
77005;BME280;67261;53.132;18.006;2024-01-16T01:54:22;99480.91;;;-2.51;63.80
77005;BME280;67261;53.132;18.006;2024-01-16T01:56:50;99488.23;;;-2.55;63.61
77005;BME280;67261;53.132;18.006;2024-01-16T01:59:18;99491.91;;;-2.60;63.62
77005;BME280;67261;53.132;18.006;2024-01-16T02:01:47;99493.21;;;-2.64;63.40
77005;BME280;67261;53.132;18.006;2024-01-16T02:04:16;99506.66;;;-2.66;63.81
77005;BME280;67261;53.132;18.006;2024-01-16T02:06:44;99510.95;;;-2.66;63.78
77005;BME280;67261;53.132;18.006;2024-01-16T02:09:12;99510.85;;;-2.64;63.87
77005;BME280;67261;53.132;18.006;2024-01-16T02:11:40;99510.20;;;-2.62;63.41
77005;BME280;67261;53.132;18.006;2024-01-16T02:14:08;99512.14;;;-2.63;63.74
77005;BME280;67261;53.132;18.006;2024-01-16T02:16:37;99518.45;;;-2.61;63.94
77005;BME280;67261;53.132;18.006;2024-01-16T02:19:05;99522.93;;;-2.58;64.03
77005;BME280;67261;53.132;18.006;2024-01-16T02:21:49;99523.20;;;-2.55;64.17
77005;BME280;67261;53.132;18.006;2024-01-16T02:24:19;99531.10;;;-2.54;63.85
77005;BME280;67261;53.132;18.006;2024-01-16T02:26:45;99531.43;;;-2.54;63.86
77005;BME280;67261;53.132;18.006;2024-01-16T02:29:12;99537.54;;;-2.54;63.10
77005;BME280;67261;53.132;18.006;2024-01-16T02:31:40;99541.08;;;-2.58;63.17
77005;BME280;67261;53.132;18.006;2024-01-16T02:34:08;99546.33;;;-2.61;63.57
77005;BME280;67261;53.132;18.006;2024-01-16T02:36:35;99549.48;;;-2.62;63.92
77005;BME280;67261;53.132;18.006;2024-01-16T02:39:02;99552.08;;;-2.62;64.02
77005;BME280;67261;53.132;18.006;2024-01-16T02:41:29;99559.90;;;-2.62;64.01
77005;BME280;67261;53.132;18.006;2024-01-16T02:43:56;99562.20;;;-2.63;63.90
77005;BME280;67261;53.132;18.006;2024-01-16T02:46:23;99571.10;;;-2.64;64.05
77005;BME280;67261;53.132;18.006;2024-01-16T02:48:51;99574.39;;;-2.64;64.00
77005;BME280;67261;53.132;18.006;2024-01-16T02:51:18;99579.67;;;-2.63;64.10
77005;BME280;67261;53.132;18.006;2024-01-16T02:53:45;99581.80;;;-2.61;64.27
77005;BME280;67261;53.132;18.006;2024-01-16T02:56:12;99585.11;;;-2.59;64.44
77005;BME280;67261;53.132;18.006;2024-01-16T02:58:39;99585.43;;;-2.56;64.45
77005;BME280;67261;53.132;18.006;2024-01-16T03:01:06;99586.59;;;-2.55;64.29
77005;BME280;67261;53.132;18.006;2024-01-16T03:03:34;99590.27;;;-2.56;64.40
77005;BME280;67261;53.132;18.006;2024-01-16T03:06:01;99594.20;;;-2.55;64.36
77005;BME280;67261;53.132;18.006;2024-01-16T03:08:28;99599.40;;;-2.58;64.18
77005;BME280;67261;53.132;18.006;2024-01-16T03:10:56;99597.36;;;-2.58;64.36
77005;BME280;67261;53.132;18.006;2024-01-16T03:13:23;99599.23;;;-2.58;64.14
77005;BME280;67261;53.132;18.006;2024-01-16T03:15:50;99602.17;;;-2.58;64.24
77005;BME280;67261;53.132;18.006;2024-01-16T03:18:17;99605.77;;;-2.57;64.21
77005;BME280;67261;53.132;18.006;2024-01-16T03:20:45;99601.42;;;-2.59;64.42
77005;BME280;67261;53.132;18.006;2024-01-16T03:23:12;99608.92;;;-2.60;64.74
77005;BME280;67261;53.132;18.006;2024-01-16T03:25:38;99607.71;;;-2.60;64.42
77005;BME280;67261;53.132;18.006;2024-01-16T03:28:05;99607.55;;;-2.61;64.20
77005;BME280;67261;53.132;18.006;2024-01-16T03:30:34;99608.30;;;-2.64;64.01
77005;BME280;67261;53.132;18.006;2024-01-16T03:33:02;99610.93;;;-2.67;64.08
77005;BME280;67261;53.132;18.006;2024-01-16T03:35:29;99610.52;;;-2.69;63.93
77005;BME280;67261;53.132;18.006;2024-01-16T03:37:56;99610.14;;;-2.71;63.84
77005;BME280;67261;53.132;18.006;2024-01-16T03:40:23;99608.95;;;-2.74;63.89
77005;BME280;67261;53.132;18.006;2024-01-16T03:42:50;99613.29;;;-2.77;63.84
77005;BME280;67261;53.132;18.006;2024-01-16T03:45:17;99613.91;;;-2.78;63.82
77005;BME280;67261;53.132;18.006;2024-01-16T03:47:44;99617.82;;;-2.80;63.96
77005;BME280;67261;53.132;18.006;2024-01-16T03:50:12;99623.52;;;-2.82;64.08
77005;BME280;67261;53.132;18.006;2024-01-16T03:52:39;99624.70;;;-2.85;63.97
77005;BME280;67261;53.132;18.006;2024-01-16T03:55:06;99626.73;;;-2.86;63.96
77005;BME280;67261;53.132;18.006;2024-01-16T03:57:33;99632.41;;;-2.89;63.61
77005;BME280;67261;53.132;18.006;2024-01-16T04:00:00;99637.00;;;-2.94;63.64
77005;BME280;67261;53.132;18.006;2024-01-16T04:02:27;99645.96;;;-2.96;63.95
77005;BME280;67261;53.132;18.006;2024-01-16T04:04:54;99645.80;;;-2.99;63.87
77005;BME280;67261;53.132;18.006;2024-01-16T04:07:23;99643.24;;;-3.02;64.15
77005;BME280;67261;53.132;18.006;2024-01-16T04:09:50;99645.33;;;-3.05;64.12
77005;BME280;67261;53.132;18.006;2024-01-16T04:12:17;99638.84;;;-3.09;64.03
77005;BME280;67261;53.132;18.006;2024-01-16T04:14:44;99645.63;;;-3.15;64.03
77005;BME280;67261;53.132;18.006;2024-01-16T04:17:11;99643.99;;;-3.20;64.36
77005;BME280;67261;53.132;18.006;2024-01-16T04:19:39;99644.00;;;-3.22;64.35
77005;BME280;67261;53.132;18.006;2024-01-16T04:22:06;99646.20;;;-3.24;64.43
77005;BME280;67261;53.132;18.006;2024-01-16T04:24:33;99647.63;;;-3.25;64.73
77005;BME280;67261;53.132;18.006;2024-01-16T04:27:00;99653.04;;;-3.26;64.52
77005;BME280;67261;53.132;18.006;2024-01-16T04:29:27;99656.34;;;-3.29;64.78
77005;BME280;67261;53.132;18.006;2024-01-16T04:31:54;99655.92;;;-3.31;65.08
77005;BME280;67261;53.132;18.006;2024-01-16T04:34:21;99662.60;;;-3.33;64.98
77005;BME280;67261;53.132;18.006;2024-01-16T04:36:48;99668.59;;;-3.37;64.95
77005;BME280;67261;53.132;18.006;2024-01-16T04:39:15;99676.94;;;-3.41;65.03
77005;BME280;67261;53.132;18.006;2024-01-16T04:41:42;99683.34;;;-3.44;65.20
77005;BME280;67261;53.132;18.006;2024-01-16T04:44:09;99685.48;;;-3.45;65.56
77005;BME280;67261;53.132;18.006;2024-01-16T04:46:37;99688.01;;;-3.47;65.50
77005;BME280;67261;53.132;18.006;2024-01-16T04:49:04;99679.05;;;-3.50;65.59
77005;BME280;67261;53.132;18.006;2024-01-16T04:51:31;99676.45;;;-3.53;65.69
77005;BME280;67261;53.132;18.006;2024-01-16T04:53:58;99681.41;;;-3.55;65.97
77005;BME280;67261;53.132;18.006;2024-01-16T04:56:25;99683.83;;;-3.58;65.97
77005;BME280;67261;53.132;18.006;2024-01-16T04:58:53;99691.19;;;-3.59;66.11
77005;BME280;67261;53.132;18.006;2024-01-16T05:01:20;99692.48;;;-3.61;66.05
77005;BME280;67261;53.132;18.006;2024-01-16T05:03:47;99693.40;;;-3.61;66.20
77005;BME280;67261;53.132;18.006;2024-01-16T05:06:14;99705.49;;;-3.62;66.29
77005;BME280;67261;53.132;18.006;2024-01-16T05:08:42;99709.00;;;-3.62;66.22
77005;BME280;67261;53.132;18.006;2024-01-16T05:11:09;99715.71;;;-3.65;66.31
77005;BME280;67261;53.132;18.006;2024-01-16T05:13:36;99714.67;;;-3.67;66.30
77005;BME280;67261;53.132;18.006;2024-01-16T05:16:05;99711.33;;;-3.72;66.33
77005;BME280;67261;53.132;18.006;2024-01-16T05:18:32;99709.21;;;-3.78;66.37
77005;BME280;67261;53.132;18.006;2024-01-16T05:21:00;99708.80;;;-3.82;66.53
77005;BME280;67261;53.132;18.006;2024-01-16T05:23:29;99714.34;;;-3.86;66.61
77005;BME280;67261;53.132;18.006;2024-01-16T05:25:55;99716.58;;;-3.89;66.73
77005;BME280;67261;53.132;18.006;2024-01-16T05:28:23;99725.45;;;-3.90;66.79
77005;BME280;67261;53.132;18.006;2024-01-16T05:30:50;99727.94;;;-3.91;66.78
77005;BME280;67261;53.132;18.006;2024-01-16T05:33:17;99730.88;;;-3.94;66.90
77005;BME280;67261;53.132;18.006;2024-01-16T05:35:44;99731.23;;;-3.97;66.90
77005;BME280;67261;53.132;18.006;2024-01-16T05:38:11;99734.10;;;-4.02;67.11
77005;BME280;67261;53.132;18.006;2024-01-16T05:40:39;99738.84;;;-4.06;67.21
77005;BME280;67261;53.132;18.006;2024-01-16T05:43:06;99745.76;;;-4.12;67.32
77005;BME280;67261;53.132;18.006;2024-01-16T05:45:33;99746.77;;;-4.18;67.43
77005;BME280;67261;53.132;18.006;2024-01-16T05:48:00;99754.91;;;-4.22;67.57
77005;BME280;67261;53.132;18.006;2024-01-16T05:50:27;99760.42;;;-4.24;67.63
77005;BME280;67261;53.132;18.006;2024-01-16T05:52:54;99762.76;;;-4.29;67.84
77005;BME280;67261;53.132;18.006;2024-01-16T05:55:22;99766.33;;;-4.34;67.90
77005;BME280;67261;53.132;18.006;2024-01-16T05:57:49;99773.69;;;-4.37;67.97
77005;BME280;67261;53.132;18.006;2024-01-16T06:00:16;99769.38;;;-4.40;68.10
77005;BME280;67261;53.132;18.006;2024-01-16T06:02:44;99778.48;;;-4.42;68.23
77005;BME280;67261;53.132;18.006;2024-01-16T06:05:11;99780.02;;;-4.45;68.12
77005;BME280;67261;53.132;18.006;2024-01-16T06:07:38;99786.97;;;-4.46;68.24
77005;BME280;67261;53.132;18.006;2024-01-16T06:10:07;99792.92;;;-4.48;68.32
77005;BME280;67261;53.132;18.006;2024-01-16T06:12:34;99801.44;;;-4.48;68.37
77005;BME280;67261;53.132;18.006;2024-01-16T06:15:02;99804.92;;;-4.49;68.38
77005;BME280;67261;53.132;18.006;2024-01-16T06:17:29;99804.07;;;-4.52;68.59
77005;BME280;67261;53.132;18.006;2024-01-16T06:19:58;99808.14;;;-4.54;68.60
77005;BME280;67261;53.132;18.006;2024-01-16T06:22:25;99815.17;;;-4.54;68.63
77005;BME280;67261;53.132;18.006;2024-01-16T06:24:52;99823.53;;;-4.55;68.64
77005;BME280;67261;53.132;18.006;2024-01-16T06:27:19;99833.39;;;-4.55;68.74
77005;BME280;67261;53.132;18.006;2024-01-16T06:29:47;99840.20;;;-4.57;68.76
77005;BME280;67261;53.132;18.006;2024-01-16T06:32:15;99843.39;;;-4.59;68.95
77005;BME280;67261;53.132;18.006;2024-01-16T06:34:42;99843.81;;;-4.60;68.85
77005;BME280;67261;53.132;18.006;2024-01-16T06:37:09;99839.55;;;-4.61;69.05
77005;BME280;67261;53.132;18.006;2024-01-16T06:39:36;99842.01;;;-4.62;69.09
77005;BME280;67261;53.132;18.006;2024-01-16T06:42:04;99844.98;;;-4.62;69.10
77005;BME280;67261;53.132;18.006;2024-01-16T06:44:31;99846.15;;;-4.65;69.02
77005;BME280;67261;53.132;18.006;2024-01-16T06:46:59;99850.65;;;-4.65;69.09
77005;BME280;67261;53.132;18.006;2024-01-16T06:49:28;99857.23;;;-4.66;69.13
77005;BME280;67261;53.132;18.006;2024-01-16T06:51:54;99861.14;;;-4.64;69.15
77005;BME280;67261;53.132;18.006;2024-01-16T06:54:22;99861.27;;;-4.67;69.04
77005;BME280;67261;53.132;18.006;2024-01-16T06:56:50;99865.30;;;-4.68;69.18
77005;BME280;67261;53.132;18.006;2024-01-16T06:59:17;99870.40;;;-4.70;69.21
77005;BME280;67261;53.132;18.006;2024-01-16T07:01:46;99873.86;;;-4.70;69.28
77005;BME280;67261;53.132;18.006;2024-01-16T07:04:13;99876.97;;;-4.70;69.25
77005;BME280;67261;53.132;18.006;2024-01-16T07:06:40;99880.55;;;-4.69;69.07
77005;BME280;67261;53.132;18.006;2024-01-16T07:09:07;99883.42;;;-4.68;69.32
77005;BME280;67261;53.132;18.006;2024-01-16T07:11:38;99886.36;;;-4.68;69.25
77005;BME280;67261;53.132;18.006;2024-01-16T07:14:09;99890.02;;;-4.69;69.22
77005;BME280;67261;53.132;18.006;2024-01-16T07:16:37;99890.70;;;-4.69;69.26
77005;BME280;67261;53.132;18.006;2024-01-16T07:19:04;99894.29;;;-4.68;69.29
77005;BME280;67261;53.132;18.006;2024-01-16T07:21:31;99903.30;;;-4.69;69.36
77005;BME280;67261;53.132;18.006;2024-01-16T07:23:58;99907.81;;;-4.69;69.38
77005;BME280;67261;53.132;18.006;2024-01-16T07:26:25;99909.52;;;-4.69;69.54
77005;BME280;67261;53.132;18.006;2024-01-16T07:28:52;99915.86;;;-4.65;69.55
77005;BME280;67261;53.132;18.006;2024-01-16T07:31:19;99916.40;;;-4.62;69.52
77005;BME280;67261;53.132;18.006;2024-01-16T07:33:47;99919.17;;;-4.59;69.41
77005;BME280;67261;53.132;18.006;2024-01-16T07:36:15;99924.58;;;-4.56;69.72
77005;BME280;67261;53.132;18.006;2024-01-16T07:38:43;99926.09;;;-4.56;69.64
77005;BME280;67261;53.132;18.006;2024-01-16T07:41:11;99927.03;;;-4.54;69.49
77005;BME280;67261;53.132;18.006;2024-01-16T07:43:39;99926.45;;;-4.53;69.65
77005;BME280;67261;53.132;18.006;2024-01-16T07:46:07;99934.64;;;-4.51;69.46
77005;BME280;67261;53.132;18.006;2024-01-16T07:48:36;99936.59;;;-4.48;69.23
77005;BME280;67261;53.132;18.006;2024-01-16T07:51:05;99938.86;;;-4.46;69.42
77005;BME280;67261;53.132;18.006;2024-01-16T07:53:35;99947.67;;;-4.43;69.38
77005;BME280;67261;53.132;18.006;2024-01-16T07:56:04;99948.34;;;-4.39;69.42
77005;BME280;67261;53.132;18.006;2024-01-16T07:58:35;99947.98;;;-4.35;69.25
77005;BME280;67261;53.132;18.006;2024-01-16T08:01:03;99953.08;;;-4.34;69.19
77005;BME280;67261;53.132;18.006;2024-01-16T08:03:30;99955.92;;;-4.32;69.18
77005;BME280;67261;53.132;18.006;2024-01-16T08:05:59;99961.21;;;-4.31;69.09
77005;BME280;67261;53.132;18.006;2024-01-16T08:08:27;99971.90;;;-4.27;69.05
77005;BME280;67261;53.132;18.006;2024-01-16T08:10:56;99970.31;;;-4.26;69.21
77005;BME280;67261;53.132;18.006;2024-01-16T08:13:23;99973.87;;;-4.22;68.96
77005;BME280;67261;53.132;18.006;2024-01-16T08:15:51;99977.86;;;-4.19;69.21
77005;BME280;67261;53.132;18.006;2024-01-16T08:18:18;99983.64;;;-4.13;69.00
77005;BME280;67261;53.132;18.006;2024-01-16T08:20:45;99986.92;;;-4.11;68.98
77005;BME280;67261;53.132;18.006;2024-01-16T08:23:12;99988.98;;;-4.07;68.89
77005;BME280;67261;53.132;18.006;2024-01-16T08:25:39;99990.59;;;-4.05;68.94
77005;BME280;67261;53.132;18.006;2024-01-16T08:28:07;99983.56;;;-4.03;68.83
77005;BME280;67261;53.132;18.006;2024-01-16T08:30:35;99992.32;;;-3.99;68.83
77005;BME280;67261;53.132;18.006;2024-01-16T08:33:04;99992.48;;;-3.95;68.72
77005;BME280;67261;53.132;18.006;2024-01-16T08:35:32;99997.67;;;-3.92;68.54
77005;BME280;67261;53.132;18.006;2024-01-16T08:38:00;99997.58;;;-3.90;68.72
77005;BME280;67261;53.132;18.006;2024-01-16T08:40:28;100000.05;;;-3.88;68.74
77005;BME280;67261;53.132;18.006;2024-01-16T08:42:55;100001.79;;;-3.88;68.56
77005;BME280;67261;53.132;18.006;2024-01-16T08:45:22;100013.83;;;-3.87;68.46
77005;BME280;67261;53.132;18.006;2024-01-16T08:47:49;100013.52;;;-3.84;68.56
77005;BME280;67261;53.132;18.006;2024-01-16T08:50:16;100017.19;;;-3.82;68.37
77005;BME280;67261;53.132;18.006;2024-01-16T08:52:44;100022.48;;;-3.77;68.54
77005;BME280;67261;53.132;18.006;2024-01-16T08:55:11;100024.10;;;-3.72;68.45
77005;BME280;67261;53.132;18.006;2024-01-16T08:57:40;100027.98;;;-3.67;68.66
77005;BME280;67261;53.132;18.006;2024-01-16T09:00:07;100032.42;;;-3.63;68.37
77005;BME280;67261;53.132;18.006;2024-01-16T09:02:39;100041.48;;;-3.58;68.41
77005;BME280;67261;53.132;18.006;2024-01-16T09:05:09;100045.06;;;-3.54;68.19
77005;BME280;67261;53.132;18.006;2024-01-16T09:07:36;100051.49;;;-3.48;68.18
77005;BME280;67261;53.132;18.006;2024-01-16T09:10:03;100061.41;;;-3.43;68.01
77005;BME280;67261;53.132;18.006;2024-01-16T09:12:31;100063.41;;;-3.38;67.71
77005;BME280;67261;53.132;18.006;2024-01-16T09:14:59;100066.77;;;-3.36;67.62
77005;BME280;67261;53.132;18.006;2024-01-16T09:17:27;100062.27;;;-3.33;67.62
77005;BME280;67261;53.132;18.006;2024-01-16T09:19:55;100055.23;;;-3.31;67.64
77005;BME280;67261;53.132;18.006;2024-01-16T09:22:23;100058.13;;;-3.27;67.69
77005;BME280;67261;53.132;18.006;2024-01-16T09:24:51;100064.09;;;-3.22;67.59
77005;BME280;67261;53.132;18.006;2024-01-16T09:27:18;100072.08;;;-3.16;67.46
77005;BME280;67261;53.132;18.006;2024-01-16T09:29:45;100073.89;;;-3.11;67.39
77005;BME280;67261;53.132;18.006;2024-01-16T09:32:13;100071.36;;;-3.06;67.31
77005;BME280;67261;53.132;18.006;2024-01-16T09:34:40;100075.29;;;-3.03;67.40
77005;BME280;67261;53.132;18.006;2024-01-16T09:37:08;100079.73;;;-2.98;66.95
77005;BME280;67261;53.132;18.006;2024-01-16T09:39:38;100078.84;;;-2.98;67.14
77005;BME280;67261;53.132;18.006;2024-01-16T09:42:07;100078.75;;;-2.93;67.03
77005;BME280;67261;53.132;18.006;2024-01-16T09:44:35;100077.96;;;-2.91;66.96
77005;BME280;67261;53.132;18.006;2024-01-16T09:47:02;100082.18;;;-2.90;66.97
77005;BME280;67261;53.132;18.006;2024-01-16T09:49:30;100083.66;;;-2.88;66.77
77005;BME280;67261;53.132;18.006;2024-01-16T09:52:01;100090.02;;;-2.90;66.54
77005;BME280;67261;53.132;18.006;2024-01-16T09:54:28;100092.67;;;-2.88;66.61
77005;BME280;67261;53.132;18.006;2024-01-16T09:56:58;100098.52;;;-2.84;66.54
77005;BME280;67261;53.132;18.006;2024-01-16T09:59:26;100099.61;;;-2.79;66.64
77005;BME280;67261;53.132;18.006;2024-01-16T10:01:56;100106.31;;;-2.75;66.48
77005;BME280;67261;53.132;18.006;2024-01-16T10:04:23;100107.45;;;-2.67;66.42
77005;BME280;67261;53.132;18.006;2024-01-16T10:06:51;100112.25;;;-2.61;66.20
77005;BME280;67261;53.132;18.006;2024-01-16T10:09:20;100119.84;;;-2.54;66.02
77005;BME280;67261;53.132;18.006;2024-01-16T10:11:48;100118.81;;;-2.48;65.89
77005;BME280;67261;53.132;18.006;2024-01-16T10:14:17;100121.00;;;-2.41;65.63
77005;BME280;67261;53.132;18.006;2024-01-16T10:17:04;100124.15;;;-2.35;65.77
77005;BME280;67261;53.132;18.006;2024-01-16T10:19:49;100126.02;;;-2.25;65.93
77005;BME280;67261;53.132;18.006;2024-01-16T10:22:23;100126.81;;;-2.19;65.86
77005;BME280;67261;53.132;18.006;2024-01-16T10:25:18;100124.34;;;-2.12;65.59
77005;BME280;67261;53.132;18.006;2024-01-16T10:27:47;100125.46;;;-2.04;65.59
77005;BME280;67261;53.132;18.006;2024-01-16T10:30:14;100123.58;;;-1.99;65.68
77005;BME280;67261;53.132;18.006;2024-01-16T10:32:42;100130.76;;;-1.94;65.44
77005;BME280;67261;53.132;18.006;2024-01-16T10:35:13;100128.46;;;-1.91;65.32
77005;BME280;67261;53.132;18.006;2024-01-16T10:37:41;100131.05;;;-1.84;65.14
77005;BME280;67261;53.132;18.006;2024-01-16T10:40:10;100134.35;;;-1.76;65.13
77005;BME280;67261;53.132;18.006;2024-01-16T10:42:40;100135.49;;;-1.63;64.93
77005;BME280;67261;53.132;18.006;2024-01-16T10:45:07;100134.57;;;-1.51;64.76
77005;BME280;67261;53.132;18.006;2024-01-16T10:47:34;100134.48;;;-1.38;64.59
77005;BME280;67261;53.132;18.006;2024-01-16T10:50:04;100135.38;;;-1.27;64.53
77005;BME280;67261;53.132;18.006;2024-01-16T10:52:33;100134.80;;;-1.20;64.46
77005;BME280;67261;53.132;18.006;2024-01-16T10:55:03;100132.68;;;-1.14;64.20
77005;BME280;67261;53.132;18.006;2024-01-16T10:57:32;100134.05;;;-1.11;64.05
77005;BME280;67261;53.132;18.006;2024-01-16T11:00:03;100135.59;;;-1.11;63.68
77005;BME280;67261;53.132;18.006;2024-01-16T11:03:25;100140.27;;;-1.14;63.71
77005;BME280;67261;53.132;18.006;2024-01-16T11:05:28;100139.06;;;-1.19;63.58
77005;BME280;67261;53.132;18.006;2024-01-16T11:07:59;100142.64;;;-1.26;63.68
77005;BME280;67261;53.132;18.006;2024-01-16T11:10:31;100143.96;;;-1.31;63.63
77005;BME280;67261;53.132;18.006;2024-01-16T11:13:04;100144.91;;;-1.35;63.65
77005;BME280;67261;53.132;18.006;2024-01-16T11:15:31;100152.10;;;-1.36;63.69
77005;BME280;67261;53.132;18.006;2024-01-16T11:18:04;100151.30;;;-1.35;63.46
77005;BME280;67261;53.132;18.006;2024-01-16T11:20:32;100147.79;;;-1.34;63.46
77005;BME280;67261;53.132;18.006;2024-01-16T11:23:01;100146.02;;;-1.31;63.40
77005;BME280;67261;53.132;18.006;2024-01-16T11:25:32;100146.43;;;-1.29;62.96
77005;BME280;67261;53.132;18.006;2024-01-16T11:28:10;100152.19;;;-1.32;62.90
77005;BME280;67261;53.132;18.006;2024-01-16T11:30:39;100150.83;;;-1.33;63.09
77005;BME280;67261;53.132;18.006;2024-01-16T11:36:00;100156.35;;;-1.30;62.65
77005;BME280;67261;53.132;18.006;2024-01-16T11:38:29;100162.21;;;-1.32;62.44
77005;BME280;67261;53.132;18.006;2024-01-16T11:40:56;100161.95;;;-1.31;62.42
77005;BME280;67261;53.132;18.006;2024-01-16T11:46:06;100157.08;;;-1.22;62.57
77005;BME280;67261;53.132;18.006;2024-01-16T11:48:37;100157.10;;;-1.13;62.47
77005;BME280;67261;53.132;18.006;2024-01-16T11:51:23;100158.60;;;-1.10;62.40
77005;BME280;67261;53.132;18.006;2024-01-16T11:53:51;100158.04;;;-1.03;61.90
77005;BME280;67261;53.132;18.006;2024-01-16T12:01:45;100154.62;;;-0.71;60.66
77005;BME280;67261;53.132;18.006;2024-01-16T12:04:14;100154.15;;;-0.61;60.53
77005;BME280;67261;53.132;18.006;2024-01-16T12:06:57;100158.65;;;-0.53;59.99
77005;BME280;67261;53.132;18.006;2024-01-16T12:09:28;100166.31;;;-0.50;60.19
77005;BME280;67261;53.132;18.006;2024-01-16T12:12:04;100171.63;;;-0.54;60.70
77005;BME280;67261;53.132;18.006;2024-01-16T12:14:32;100175.09;;;-0.57;60.80
77005;BME280;67261;53.132;18.006;2024-01-16T12:17:12;100176.50;;;-0.60;60.38
77005;BME280;67261;53.132;18.006;2024-01-16T12:19:40;100175.83;;;-0.69;60.45
77005;BME280;67261;53.132;18.006;2024-01-16T12:22:09;100180.40;;;-0.75;60.69
77005;BME280;67261;53.132;18.006;2024-01-16T12:24:39;100181.86;;;-0.79;60.43
77005;BME280;67261;53.132;18.006;2024-01-16T12:27:06;100184.79;;;-0.81;60.41
77005;BME280;67261;53.132;18.006;2024-01-16T12:29:35;100186.90;;;-0.84;60.33
77005;BME280;67261;53.132;18.006;2024-01-16T12:32:07;100191.42;;;-0.90;60.16
77005;BME280;67261;53.132;18.006;2024-01-16T12:34:35;100188.77;;;-1.01;60.37
77005;BME280;67261;53.132;18.006;2024-01-16T12:37:10;100191.20;;;-1.06;60.32
77005;BME280;67261;53.132;18.006;2024-01-16T12:39:42;100193.02;;;-1.10;60.47
77005;BME280;67261;53.132;18.006;2024-01-16T12:42:11;100194.81;;;-1.14;60.39
77005;BME280;67261;53.132;18.006;2024-01-16T12:44:38;100193.80;;;-1.20;60.14
77005;BME280;67261;53.132;18.006;2024-01-16T12:47:05;100195.41;;;-1.27;60.41
77005;BME280;67261;53.132;18.006;2024-01-16T12:49:32;100203.80;;;-1.25;60.93
77005;BME280;67261;53.132;18.006;2024-01-16T12:52:19;100203.96;;;-1.19;60.79
77005;BME280;67261;53.132;18.006;2024-01-16T12:54:48;100206.55;;;-1.13;60.75
77005;BME280;67261;53.132;18.006;2024-01-16T12:57:18;100210.23;;;-1.11;60.70
77005;BME280;67261;53.132;18.006;2024-01-16T12:59:47;100212.61;;;-1.08;60.69
77005;BME280;67261;53.132;18.006;2024-01-16T13:02:25;100212.41;;;-1.04;60.54
77005;BME280;67261;53.132;18.006;2024-01-16T13:04:59;100214.44;;;-1.00;60.53